Time;durP1;ratioP1;P1;durP2;ratioP2;P2;SDS_P1;SDS_P2;PMS_P1;PMS_P2;Temp;Humidity;BMP_temperature;BMP_pressure;BME280_temperature;BME280_humidity;BME280_pressure;Samples;Min_cycle;Max_cycle;Signal;HPM_P1;HPM_P2
2022/08/14 00:00:10;;;;;;;16.30;12.52;;;;;;;;;;5021499;28;20484;-69
2022/08/14 00:02:35;;;;;;;15.00;12.02;;;;;;;;;;5019905;28;20186;-70
2022/08/14 00:05:01;;;;;;;15.55;11.07;;;;;;;;;;5020165;28;20048;-70
2022/08/14 00:07:26;;;;;;;12.32;9.55;;;;;;;;;;5017227;28;20327;-71
2022/08/14 00:09:52;;;;;;;12.55;9.93;;;;;;;;;;5021043;28;20055;-68
2022/08/14 00:12:18;;;;;;;13.80;9.68;;;;;;;;;;5024885;28;20120;-69
2022/08/14 00:14:44;;;;;;;10.43;8.85;;;;;;;;;;5034014;28;20138;-68
2022/08/14 00:17:09;;;;;;;13.23;9.68;;;;;;;;;;5020488;28;20550;-69
2022/08/14 00:19:34;;;;;;;12.27;9.95;;;;;;;;;;5020697;28;20307;-69
2022/08/14 00:22:00;;;;;;;12.27;9.65;;;;;;;;;;5020878;28;20668;-69
2022/08/14 00:24:25;;;;;;;11.32;10.20;;;;;;;;;;5020309;28;20211;-69
2022/08/14 00:26:52;;;;;;;15.85;11.38;;;;;;;;;;5024138;28;20079;-70
2022/08/14 00:29:17;;;;;;;11.80;10.60;;;;;;;;;;5021030;28;20040;-69
2022/08/14 00:31:43;;;;;;;13.30;10.60;;;;;;;;;;5025695;28;20029;-69
2022/08/14 00:34:08;;;;;;;16.30;10.05;;;;;;;;;;5020428;28;20073;-71
2022/08/14 00:36:34;;;;;;;11.82;10.13;;;;;;;;;;5033959;28;20052;-69
2022/08/14 00:38:59;;;;;;;12.13;9.07;;;;;;;;;;5019693;28;20273;-70
2022/08/14 00:41:28;;;;;;;10.73;9.10;;;;;;;;;;5020147;28;20045;-71
2022/08/14 00:43:54;;;;;;;12.30;10.23;;;;;;;;;;5021549;28;20208;-68
2022/08/14 00:46:19;;;;;;;13.85;10.77;;;;;;;;;;5024283;28;20032;-69
2022/08/14 00:48:44;;;;;;;17.75;13.23;;;;;;;;;;5017632;28;20387;-71
2022/08/14 00:51:10;;;;;;;14.10;11.93;;;;;;;;;;5021911;28;20047;-70
2022/08/14 00:53:35;;;;;;;14.55;10.57;;;;;;;;;;5020770;28;20041;-70
2022/08/14 00:56:02;;;;;;;16.80;10.98;;;;;;;;;;5019617;28;20672;-70
2022/08/14 00:58:30;;;;;;;12.43;10.40;;;;;;;;;;5033805;28;20240;-70
2022/08/14 01:00:56;;;;;;;14.00;10.27;;;;;;;;;;5019052;28;20047;-70
2022/08/14 01:03:24;;;;;;;12.43;9.77;;;;;;;;;;5018679;28;20651;-70
2022/08/14 01:05:50;;;;;;;11.43;10.13;;;;;;;;;;5032068;28;20153;-71
2022/08/14 01:08:19;;;;;;;13.82;10.45;;;;;;;;;;5019180;28;20116;-70
2022/08/14 01:10:50;;;;;;;14.57;11.77;;;;;;;;;;5017968;28;20055;-70
2022/08/14 01:13:18;;;;;;;14.55;11.20;;;;;;;;;;5018678;28;20157;-69
2022/08/14 01:15:47;;;;;;;12.40;10.88;;;;;;;;;;5019426;28;20063;-71
2022/08/14 01:21:02;;;;;;;12.38;11.07;;;;;;;;;;5006317;28;20673;-71
2022/08/14 01:23:28;;;;;;;13.77;10.23;;;;;;;;;;5019386;28;20531;-70
2022/08/14 01:25:54;;;;;;;14.32;10.10;;;;;;;;;;5021448;28;20032;-69
2022/08/14 01:28:21;;;;;;;14.65;9.93;;;;;;;;;;5019781;28;20041;-69
2022/08/14 01:30:47;;;;;;;10.57;9.48;;;;;;;;;;5006870;28;20538;-69
2022/08/14 01:33:12;;;;;;;10.70;9.45;;;;;;;;;;5005764;28;20060;-71
2022/08/14 01:35:39;;;;;;;12.35;9.63;;;;;;;;;;5020899;28;20116;-71
2022/08/14 01:38:04;;;;;;;12.88;10.00;;;;;;;;;;5018923;28;20108;-71
2022/08/14 01:40:32;;;;;;;15.68;9.68;;;;;;;;;;5006122;28;20576;-69
2022/08/14 01:42:57;;;;;;;12.48;10.43;;;;;;;;;;5022277;28;20063;-70
2022/08/14 01:45:22;;;;;;;14.73;10.13;;;;;;;;;;5005478;28;20036;-70
2022/08/14 01:47:50;;;;;;;11.15;9.93;;;;;;;;;;5018285;28;20032;-70
2022/08/14 01:50:17;;;;;;;10.18;8.82;;;;;;;;;;5017203;28;20780;-69
2022/08/14 01:52:42;;;;;;;12.35;9.02;;;;;;;;;;5032841;28;20446;-69
2022/08/14 01:55:11;;;;;;;10.07;8.88;;;;;;;;;;5030984;28;20842;-70
2022/08/14 01:57:37;;;;;;;11.60;8.18;;;;;;;;;;5032565;28;20619;-70
2022/08/14 02:00:07;;;;;;;10.77;8.48;;;;;;;;;;5006697;28;20051;-69
2022/08/14 02:02:33;;;;;;;9.82;8.48;;;;;;;;;;5018167;28;20057;-70
2022/08/14 02:04:59;;;;;;;10.18;9.00;;;;;;;;;;5019032;28;20037;-69
2022/08/14 02:07:25;;;;;;;11.18;8.57;;;;;;;;;;5014227;28;20039;-70
2022/08/14 02:09:52;;;;;;;10.75;9.65;;;;;;;;;;5018669;28;20414;-70
2022/08/14 02:12:17;;;;;;;12.98;10.13;;;;;;;;;;5017317;28;20478;-70
2022/08/14 02:14:47;;;;;;;12.82;10.25;;;;;;;;;;5017781;28;20043;-70
2022/08/14 02:17:12;;;;;;;13.38;10.20;;;;;;;;;;5033306;28;20515;-70
2022/08/14 02:19:37;;;;;;;14.00;11.13;;;;;;;;;;5021127;28;20037;-70
2022/08/14 02:22:03;;;;;;;14.35;11.23;;;;;;;;;;5020320;28;20215;-69
2022/08/14 02:24:30;;;;;;;14.07;11.60;;;;;;;;;;5018306;28;20036;-70
2022/08/14 02:26:58;;;;;;;14.88;10.85;;;;;;;;;;5018065;28;20132;-70
2022/08/14 02:29:24;;;;;;;15.38;11.02;;;;;;;;;;5015717;28;20420;-70
2022/08/14 02:31:53;;;;;;;12.43;9.25;;;;;;;;;;5018270;28;20043;-70
2022/08/14 02:34:28;;;;;;;12.23;9.05;;;;;;;;;;5019663;28;20855;-70
2022/08/14 02:36:58;;;;;;;10.80;8.85;;;;;;;;;;5034367;28;20113;-70
2022/08/14 02:39:23;;;;;;;10.10;8.88;;;;;;;;;;5018156;28;21091;-69
2022/08/14 02:41:50;;;;;;;15.80;9.02;;;;;;;;;;5021657;28;20033;-69
2022/08/14 02:44:21;;;;;;;10.27;9.18;;;;;;;;;;5033704;28;20080;-69
2022/08/14 02:46:46;;;;;;;10.98;9.95;;;;;;;;;;5016236;28;20093;-70
2022/08/14 02:49:12;;;;;;;10.25;8.95;;;;;;;;;;5018283;28;20520;-69
2022/08/14 02:51:37;;;;;;;10.93;8.98;;;;;;;;;;5022901;28;20075;-69
2022/08/14 02:54:03;;;;;;;12.25;9.88;;;;;;;;;;5018797;28;20033;-69
2022/08/14 02:56:29;;;;;;;11.23;9.32;;;;;;;;;;5018118;28;20044;-69
2022/08/14 02:58:55;;;;;;;11.68;9.32;;;;;;;;;;5025166;28;20037;-70
2022/08/14 03:01:21;;;;;;;11.80;9.85;;;;;;;;;;5022004;28;20712;-69
2022/08/14 03:03:48;;;;;;;11.13;9.68;;;;;;;;;;5021768;28;20240;-69
2022/08/14 03:06:14;;;;;;;10.93;9.50;;;;;;;;;;5021113;28;20045;-69
2022/08/14 03:08:41;;;;;;;13.73;9.00;;;;;;;;;;5021196;28;20706;-68
2022/08/14 03:11:09;;;;;;;14.15;9.50;;;;;;;;;;5021500;28;20420;-69
2022/08/14 03:13:36;;;;;;;11.80;9.82;;;;;;;;;;5023667;28;20032;-69
2022/08/14 03:16:05;;;;;;;10.38;9.30;;;;;;;;;;5020676;28;20029;-69
2022/08/14 03:18:30;;;;;;;12.23;9.43;;;;;;;;;;5020753;28;20401;-69
2022/08/14 03:20:56;;;;;;;11.57;9.90;;;;;;;;;;5008571;28;20045;-69
2022/08/14 03:23:21;;;;;;;11.15;9.80;;;;;;;;;;5021862;28;20044;-69
2022/08/14 03:25:49;;;;;;;11.63;10.18;;;;;;;;;;5020965;28;20118;-69
2022/08/14 03:28:14;;;;;;;12.90;10.70;;;;;;;;;;5022054;28;20055;-69
2022/08/14 03:30:40;;;;;;;11.45;10.30;;;;;;;;;;5022289;28;20501;-69
2022/08/14 03:33:06;;;;;;;13.85;10.38;;;;;;;;;;5021267;28;20037;-69
2022/08/14 03:35:32;;;;;;;11.23;10.13;;;;;;;;;;5021917;28;20653;-69
2022/08/14 03:38:11;;;;;;;13.25;10.80;;;;;;;;;;5020536;28;20040;-69
2022/08/14 03:40:37;;;;;;;17.17;10.93;;;;;;;;;;5024570;28;20048;-69
2022/08/14 03:43:07;;;;;;;13.32;10.55;;;;;;;;;;5021309;28;20269;-69
2022/08/14 03:45:35;;;;;;;11.30;10.18;;;;;;;;;;5022576;28;20477;-69
2022/08/14 03:48:09;;;;;;;12.98;10.77;;;;;;;;;;5021745;28;20041;-69
2022/08/14 03:50:34;;;;;;;12.63;11.15;;;;;;;;;;5019492;28;20044;-69
2022/08/14 03:53:02;;;;;;;15.38;10.65;;;;;;;;;;5037014;28;20162;-69
2022/08/14 03:55:27;;;;;;;13.13;10.73;;;;;;;;;;5020570;28;20037;-69
2022/08/14 03:57:54;;;;;;;11.00;9.90;;;;;;;;;;5021966;28;20083;-69
2022/08/14 04:00:22;;;;;;;14.13;10.40;;;;;;;;;;5032979;28;20056;-69
2022/08/14 04:02:48;;;;;;;12.43;10.63;;;;;;;;;;5035092;28;20511;-69
2022/08/14 04:05:14;;;;;;;11.43;10.23;;;;;;;;;;5008919;28;20052;-69
2022/08/14 04:07:40;;;;;;;13.63;10.65;;;;;;;;;;5007208;28;20083;-69
2022/08/14 04:10:06;;;;;;;15.40;10.73;;;;;;;;;;5021510;28;20043;-69
2022/08/14 04:12:32;;;;;;;12.98;10.80;;;;;;;;;;5033932;28;20032;-70
2022/08/14 04:14:57;;;;;;;12.60;11.27;;;;;;;;;;5035966;28;20149;-71
2022/08/14 04:17:23;;;;;;;16.65;11.23;;;;;;;;;;5034684;28;20041;-68
2022/08/14 04:19:48;;;;;;;12.60;11.30;;;;;;;;;;5025138;28;20039;-69
2022/08/14 04:22:13;;;;;;;13.05;11.48;;;;;;;;;;5020023;28;20058;-68
2022/08/14 04:24:39;;;;;;;13.35;11.93;;;;;;;;;;5023016;28;20416;-69
2022/08/14 04:27:09;;;;;;;14.93;11.50;;;;;;;;;;5019992;28;20037;-71
2022/08/14 04:29:36;;;;;;;12.95;11.50;;;;;;;;;;5018277;28;20836;-70
2022/08/14 04:32:01;;;;;;;15.15;11.98;;;;;;;;;;5019922;28;20787;-70
2022/08/14 04:34:27;;;;;;;13.55;11.93;;;;;;;;;;5023865;28;20426;-71
2022/08/14 04:45:13;;;;;;;17.13;12.30;;;;;;;;;;5018592;28;20140;-70
2022/08/14 04:50:23;;;;;;;14.32;12.68;;;;;;;;;;5030834;28;20048;-70
2022/08/14 04:52:50;;;;;;;15.68;12.27;;;;;;;;;;5033696;28;20443;-70
2022/08/14 04:55:17;;;;;;;13.45;12.02;;;;;;;;;;5024019;28;20052;-69
2022/08/14 04:57:42;;;;;;;16.48;12.20;;;;;;;;;;5034705;28;20730;-69
2022/08/14 05:00:07;;;;;;;16.50;13.18;;;;;;;;;;5020014;28;20040;-69
2022/08/14 05:02:33;;;;;;;14.90;12.23;;;;;;;;;;5021186;28;20051;-69
2022/08/14 05:04:58;;;;;;;16.33;13.18;;;;;;;;;;5018481;28;20106;-69
2022/08/14 05:07:24;;;;;;;14.13;12.13;;;;;;;;;;5020367;28;20226;-69
2022/08/14 05:09:51;;;;;;;15.40;12.43;;;;;;;;;;5019836;28;20045;-69
2022/08/14 05:12:17;;;;;;;14.43;12.48;;;;;;;;;;5022382;28;20423;-69
2022/08/14 05:14:42;;;;;;;13.65;12.15;;;;;;;;;;5018944;28;20465;-69
2022/08/14 05:17:10;;;;;;;14.50;12.93;;;;;;;;;;5015823;28;20036;-70
2022/08/14 05:19:36;;;;;;;14.63;12.65;;;;;;;;;;5019985;28;20429;-70
2022/08/14 05:22:01;;;;;;;14.00;12.30;;;;;;;;;;5015537;28;20036;-70
2022/08/14 05:24:32;;;;;;;13.77;12.35;;;;;;;;;;5026003;28;20566;-71
2022/08/14 05:27:02;;;;;;;14.98;13.15;;;;;;;;;;5028544;28;20065;-73
2022/08/14 05:29:27;;;;;;;16.73;12.93;;;;;;;;;;5023912;28;20128;-73
2022/08/14 05:31:55;;;;;;;17.02;12.57;;;;;;;;;;5026568;28;20041;-73
2022/08/14 05:34:24;;;;;;;13.68;12.27;;;;;;;;;;5025392;28;20773;-74
2022/08/14 05:36:53;;;;;;;13.25;11.85;;;;;;;;;;5023721;28;20635;-73
2022/08/14 05:39:18;;;;;;;14.80;12.18;;;;;;;;;;5025878;28;20269;-71
2022/08/14 05:41:43;;;;;;;14.38;12.63;;;;;;;;;;5027009;28;20036;-73
2022/08/14 05:44:11;;;;;;;13.88;12.05;;;;;;;;;;5037385;28;20043;-74
2022/08/14 05:46:37;;;;;;;17.17;11.68;;;;;;;;;;5031803;28;20492;-73
2022/08/14 05:49:04;;;;;;;13.27;11.70;;;;;;;;;;5044134;28;21040;-73
2022/08/14 05:51:29;;;;;;;13.73;11.80;;;;;;;;;;5041035;28;20056;-74
2022/08/14 05:53:55;;;;;;;14.80;11.82;;;;;;;;;;5045074;28;20082;-73
2022/08/14 05:56:23;;;;;;;14.30;12.18;;;;;;;;;;5046829;28;20166;-74
2022/08/14 05:58:49;;;;;;;14.52;12.35;;;;;;;;;;5044224;28;20041;-74
2022/08/14 06:01:14;;;;;;;12.85;11.57;;;;;;;;;;5049555;28;20040;-75
2022/08/14 06:03:39;;;;;;;12.50;11.02;;;;;;;;;;5058365;28;20040;-74
2022/08/14 06:06:05;;;;;;;13.68;12.20;;;;;;;;;;5047888;28;20036;-75
2022/08/14 06:08:31;;;;;;;12.75;11.40;;;;;;;;;;5043348;28;20050;-73
2022/08/14 06:11:02;;;;;;;13.82;11.60;;;;;;;;;;5045503;28;20492;-74
2022/08/14 06:13:40;;;;;;;12.10;10.80;;;;;;;;;;5044668;28;20130;-74
2022/08/14 06:16:06;;;;;;;12.15;10.88;;;;;;;;;;5059627;28;20036;-75
2022/08/14 06:18:32;;;;;;;15.63;11.35;;;;;;;;;;5034936;28;20039;-75
2022/08/14 06:20:59;;;;;;;14.38;11.05;;;;;;;;;;5038627;28;20032;-74
2022/08/14 06:23:24;;;;;;;11.70;10.50;;;;;;;;;;5034472;28;20050;-75
2022/08/14 06:25:50;;;;;;;13.35;10.40;;;;;;;;;;5045298;28;20025;-74
2022/08/14 06:28:21;;;;;;;13.45;10.65;;;;;;;;;;5026257;28;20704;-70
2022/08/14 06:30:49;;;;;;;15.15;10.23;;;;;;;;;;5016951;28;20051;-71
2022/08/14 06:33:15;;;;;;;11.85;10.65;;;;;;;;;;5024793;28;20437;-74
2022/08/14 06:35:40;;;;;;;12.35;9.85;;;;;;;;;;5030160;28;20043;-70
2022/08/14 06:38:13;;;;;;;16.83;10.05;;;;;;;;;;5019844;28;20523;-68
2022/08/14 06:40:38;;;;;;;14.93;9.75;;;;;;;;;;5021457;28;20037;-71
2022/08/14 06:43:07;;;;;;;9.90;8.93;;;;;;;;;;5035702;28;20934;-70
2022/08/14 06:45:34;;;;;;;9.85;8.85;;;;;;;;;;5010501;28;20452;-69
2022/08/14 06:48:02;;;;;;;9.80;8.80;;;;;;;;;;5022074;28;20036;-69
2022/08/14 06:50:27;;;;;;;12.80;8.27;;;;;;;;;;5024321;28;21020;-73
2022/08/14 06:52:53;;;;;;;11.80;8.57;;;;;;;;;;5023781;28;20036;-74
2022/08/14 06:55:18;;;;;;;9.57;8.38;;;;;;;;;;5038131;28;20059;-73
2022/08/14 06:57:47;;;;;;;8.70;7.80;;;;;;;;;;5023788;28;21099;-73
2022/08/14 07:00:13;;;;;;;8.70;7.75;;;;;;;;;;5033983;27;20148;-71
2022/08/14 07:08:17;;;;;;;9.60;7.75;;;;;;;;;;5024919;28;20036;-71
2022/08/14 07:10:45;;;;;;;10.07;7.60;;;;;;;;;;5020252;28;20075;-74
2022/08/14 07:13:12;;;;;;;10.20;7.63;;;;;;;;;;5019147;28;20128;-72
2022/08/14 07:15:38;;;;;;;9.07;8.13;;;;;;;;;;5018148;28;20147;-73
2022/08/14 07:18:04;;;;;;;10.93;7.47;;;;;;;;;;5035920;28;20035;-75
2022/08/14 07:20:30;;;;;;;8.35;7.65;;;;;;;;;;5044636;28;20563;-72
2022/08/14 07:22:57;;;;;;;9.88;7.60;;;;;;;;;;5039250;28;20044;-73
2022/08/14 07:25:26;;;;;;;8.38;7.50;;;;;;;;;;5023028;28;20274;-75
2022/08/14 07:27:51;;;;;;;9.73;7.07;;;;;;;;;;5023575;28;20342;-76
2022/08/14 07:30:17;;;;;;;9.73;7.70;;;;;;;;;;5011423;28;20702;-72
2022/08/14 07:32:42;;;;;;;7.78;6.80;;;;;;;;;;5022753;28;20037;-75
2022/08/14 07:35:07;;;;;;;9.50;7.60;;;;;;;;;;5043813;28;20068;-73
2022/08/14 07:37:33;;;;;;;8.10;7.05;;;;;;;;;;5038372;28;20040;-72
2022/08/14 07:39:58;;;;;;;10.15;7.10;;;;;;;;;;5039808;28;20033;-73
2022/08/14 07:42:26;;;;;;;11.15;7.10;;;;;;;;;;5038824;28;20035;-73
2022/08/14 07:44:51;;;;;;;8.68;7.38;;;;;;;;;;5020473;28;20060;-75
2022/08/14 07:47:16;;;;;;;8.52;6.93;;;;;;;;;;5033600;28;20040;-71
2022/08/14 07:49:48;;;;;;;8.32;7.15;;;;;;;;;;5024290;28;20040;-77
2022/08/14 07:52:21;;;;;;;7.95;7.03;;;;;;;;;;5023574;28;20294;-76
2022/08/14 07:54:46;;;;;;;9.10;7.23;;;;;;;;;;5020257;28;21987;-76
2022/08/14 07:57:11;;;;;;;8.27;6.50;;;;;;;;;;5019138;28;20200;-77
2022/08/14 07:59:37;;;;;;;6.50;5.85;;;;;;;;;;5020534;28;20064;-77
2022/08/14 08:02:03;;;;;;;9.82;6.53;;;;;;;;;;5035108;28;20032;-76
2022/08/14 08:04:29;;;;;;;8.25;6.50;;;;;;;;;;5023532;28;20557;-74
2022/08/14 08:06:54;;;;;;;7.05;6.20;;;;;;;;;;5031535;28;20526;-71
2022/08/14 08:09:23;;;;;;;7.28;5.90;;;;;;;;;;5019434;28;20052;-71
2022/08/14 08:11:48;;;;;;;10.40;6.65;;;;;;;;;;5024188;28;20048;-71
2022/08/14 08:14:14;;;;;;;7.60;6.80;;;;;;;;;;5020062;28;22511;-71
2022/08/14 08:16:40;;;;;;;7.18;6.43;;;;;;;;;;5019055;28;20039;-72
2022/08/14 08:19:09;;;;;;;9.13;6.72;;;;;;;;;;5020243;28;20186;-73
2022/08/14 08:21:37;;;;;;;6.65;5.90;;;;;;;;;;5021504;28;21299;-73
2022/08/14 08:24:03;;;;;;;10.35;6.20;;;;;;;;;;5020604;28;20123;-74
2022/08/14 08:26:29;;;;;;;8.55;5.93;;;;;;;;;;5022056;28;20035;-75
2022/08/14 08:28:56;;;;;;;9.98;6.00;;;;;;;;;;5005995;28;20072;-74
2022/08/14 08:31:21;;;;;;;8.43;6.00;;;;;;;;;;5023362;28;20039;-73
2022/08/14 08:33:50;;;;;;;7.20;5.95;;;;;;;;;;5024760;28;20162;-70
2022/08/14 08:36:15;;;;;;;8.82;5.90;;;;;;;;;;5018415;28;20067;-70
2022/08/14 08:38:40;;;;;;;6.38;5.45;;;;;;;;;;5018306;28;20765;-74
2022/08/14 08:41:06;;;;;;;9.85;5.60;;;;;;;;;;5053435;27;21898;-74
2022/08/14 08:43:33;;;;;;;6.32;5.53;;;;;;;;;;5019796;28;20041;-73
2022/08/14 08:46:19;;;;;;;7.88;6.00;;;;;;;;;;5026148;28;20916;-73
2022/08/14 08:48:55;;;;;;;8.65;6.07;;;;;;;;;;5018729;28;20032;-73
2022/08/14 08:51:25;;;;;;;10.63;5.95;;;;;;;;;;5022160;28;20033;-74
2022/08/14 08:54:03;;;;;;;8.45;5.97;;;;;;;;;;5025129;28;20089;-74
2022/08/14 08:56:40;;;;;;;6.85;5.70;;;;;;;;;;5025560;28;20163;-74
2022/08/14 08:59:27;;;;;;;6.85;5.65;;;;;;;;;;5025474;28;20066;-76
2022/08/14 09:01:58;;;;;;;6.03;5.47;;;;;;;;;;5024909;28;20774;-76
2022/08/14 09:04:24;;;;;;;10.30;6.03;;;;;;;;;;5026524;28;22647;-77
2022/08/14 09:06:50;;;;;;;6.90;5.35;;;;;;;;;;5025786;28;20142;-74
2022/08/14 09:09:19;;;;;;;9.63;5.80;;;;;;;;;;5016456;28;20053;-71
2022/08/14 09:11:45;;;;;;;8.75;5.57;;;;;;;;;;5024297;28;20111;-77
2022/08/14 09:14:10;;;;;;;9.90;6.03;;;;;;;;;;5021426;28;20334;-75
2022/08/14 09:16:38;;;;;;;9.80;5.63;;;;;;;;;;5017328;28;21234;-70
2022/08/14 09:19:03;;;;;;;7.63;5.63;;;;;;;;;;5018167;28;22486;-74
2022/08/14 09:21:29;;;;;;;10.48;6.13;;;;;;;;;;5020614;28;20493;-71
2022/08/14 09:23:55;;;;;;;8.18;5.60;;;;;;;;;;5023090;28;20037;-71
2022/08/14 09:26:20;;;;;;;6.57;5.82;;;;;;;;;;5017495;28;20039;-73
2022/08/14 09:28:45;;;;;;;7.97;6.22;;;;;;;;;;5035868;28;20111;-71
2022/08/14 09:31:11;;;;;;;7.20;6.38;;;;;;;;;;5045888;28;20493;-70
2022/08/14 09:33:46;;;;;;;8.32;6.72;;;;;;;;;;5028052;28;20120;-72
2022/08/14 09:36:14;;;;;;;7.25;5.97;;;;;;;;;;5038521;28;20036;-74
2022/08/14 09:38:49;;;;;;;7.10;5.70;;;;;;;;;;5022978;28;20039;-74
2022/08/14 09:41:34;;;;;;;8.75;5.55;;;;;;;;;;5019843;28;20170;-73
2022/08/14 09:44:28;;;;;;;10.88;5.72;;;;;;;;;;5023040;28;20993;-73
2022/08/14 09:46:57;;;;;;;5.93;5.30;;;;;;;;;;5009411;28;21082;-72
2022/08/14 09:49:31;;;;;;;6.80;5.43;;;;;;;;;;5021187;28;20040;-71
2022/08/14 09:52:03;;;;;;;9.70;5.95;;;;;;;;;;5038585;28;20036;-72
2022/08/14 09:54:36;;;;;;;6.82;5.68;;;;;;;;;;5022100;28;20054;-71
2022/08/14 09:57:05;;;;;;;8.77;5.60;;;;;;;;;;5022940;28;20900;-73
2022/08/14 09:59:38;;;;;;;11.07;5.63;;;;;;;;;;5038054;28;20044;-73
2022/08/14 10:02:05;;;;;;;8.25;6.03;;;;;;;;;;5029453;28;20046;-74
2022/08/14 10:04:33;;;;;;;8.27;6.05;;;;;;;;;;5028830;28;20095;-70
2022/08/14 10:06:59;;;;;;;8.18;6.05;;;;;;;;;;5026204;28;20032;-71
2022/08/14 10:09:28;;;;;;;7.45;6.35;;;;;;;;;;5039999;28;20052;-73
2022/08/14 10:11:57;;;;;;;6.13;5.53;;;;;;;;;;5035295;28;20565;-72
2022/08/14 10:14:23;;;;;;;6.55;5.20;;;;;;;;;;5011499;28;20628;-71
2022/08/14 10:16:51;;;;;;;7.53;5.80;;;;;;;;;;5020004;28;20649;-71
2022/08/14 10:19:18;;;;;;;10.43;5.78;;;;;;;;;;5025520;28;20043;-73
2022/08/14 10:21:55;;;;;;;6.57;5.97;;;;;;;;;;5027067;28;20052;-71
2022/08/14 10:24:24;;;;;;;6.75;5.40;;;;;;;;;;5026435;28;20047;-73
2022/08/14 10:26:56;;;;;;;7.45;5.10;;;;;;;;;;5025179;28;20029;-71
2022/08/14 10:29:39;;;;;;;7.53;5.43;;;;;;;;;;5021280;28;20367;-71
2022/08/14 10:32:05;;;;;;;8.73;5.15;;;;;;;;;;5019284;28;20032;-70
2022/08/14 10:34:32;;;;;;;5.60;4.85;;;;;;;;;;5018754;28;20086;-70
2022/08/14 10:37:04;;;;;;;6.55;5.07;;;;;;;;;;5027575;28;20055;-72
2022/08/14 10:39:29;;;;;;;7.13;5.25;;;;;;;;;;5021161;28;20071;-71
2022/08/14 10:42:08;;;;;;;6.18;4.93;;;;;;;;;;5027446;28;20041;-71
2022/08/14 10:44:35;;;;;;;6.45;4.78;;;;;;;;;;5027242;28;20614;-71
2022/08/14 10:47:06;;;;;;;6.40;4.70;;;;;;;;;;5023033;28;20043;-73
2022/08/14 10:49:35;;;;;;;5.68;5.05;;;;;;;;;;5019087;28;20193;-70
2022/08/14 10:52:05;;;;;;;11.00;5.03;;;;;;;;;;5035570;28;20157;-70
2022/08/14 10:54:32;;;;;;;7.53;4.13;;;;;;;;;;5022669;28;20056;-68
2022/08/14 10:57:17;;;;;;;6.90;4.47;;;;;;;;;;5020198;28;20140;-73
2022/08/14 10:59:46;;;;;;;7.95;4.75;;;;;;;;;;5015141;28;20212;-69
2022/08/14 11:02:19;;;;;;;5.18;4.68;;;;;;;;;;5012496;28;20051;-69
2022/08/14 11:04:56;;;;;;;6.45;4.70;;;;;;;;;;5016334;28;20802;-69
2022/08/14 11:07:21;;;;;;;5.78;4.53;;;;;;;;;;5014778;28;20079;-70
2022/08/14 11:09:56;;;;;;;8.13;4.55;;;;;;;;;;5017509;28;20106;-70
2022/08/14 11:12:21;;;;;;;6.18;4.38;;;;;;;;;;5014830;28;20137;-70
2022/08/14 11:15:06;;;;;;;9.00;4.20;;;;;;;;;;5022089;28;20436;-70
2022/08/14 11:17:32;;;;;;;10.93;5.07;;;;;;;;;;5031962;28;20037;-70
2022/08/14 11:19:59;;;;;;;8.55;4.60;;;;;;;;;;5032240;28;20040;-70
2022/08/14 11:22:27;;;;;;;6.25;4.60;;;;;;;;;;5022353;28;20068;-70
2022/08/14 11:24:55;;;;;;;6.07;4.32;;;;;;;;;;5023542;28;20041;-71
2022/08/14 11:27:20;;;;;;;5.05;4.15;;;;;;;;;;5019962;28;20856;-70
2022/08/14 11:29:48;;;;;;;5.97;4.40;;;;;;;;;;5017703;28;20714;-70
2022/08/14 11:32:13;;;;;;;6.68;4.28;;;;;;;;;;5019686;28;20071;-69
2022/08/14 11:34:38;;;;;;;6.30;4.50;;;;;;;;;;5018305;28;20568;-70
2022/08/14 11:37:07;;;;;;;7.88;4.90;;;;;;;;;;5019281;28;20068;-71
2022/08/14 11:39:33;;;;;;;7.40;4.20;;;;;;;;;;5017974;28;20085;-71
2022/08/14 11:41:59;;;;;;;9.73;5.20;;;;;;;;;;5033678;28;20276;-70
2022/08/14 11:44:25;;;;;;;6.60;4.47;;;;;;;;;;5006255;28;20067;-71
2022/08/14 11:46:50;;;;;;;7.00;4.70;;;;;;;;;;5018864;28;20067;-70
2022/08/14 11:49:24;;;;;;;10.10;4.82;;;;;;;;;;5019122;28;20316;-70
2022/08/14 11:51:53;;;;;;;8.25;5.10;;;;;;;;;;5019188;28;20818;-71
2022/08/14 11:54:20;;;;;;;5.20;4.40;;;;;;;;;;5018500;28;20269;-70
2022/08/14 11:56:50;;;;;;;6.25;4.88;;;;;;;;;;5018946;28;20036;-70
2022/08/14 11:59:17;;;;;;;6.93;4.60;;;;;;;;;;5033187;28;20241;-70
2022/08/14 12:01:45;;;;;;;7.35;4.03;;;;;;;;;;5019207;28;20044;-70
2022/08/14 12:04:16;;;;;;;7.15;3.33;;;;;;;;;;5021119;28;20370;-70
2022/08/14 12:06:47;;;;;;;8.15;3.95;;;;;;;;;;5014978;28;20141;-70
2022/08/14 12:09:33;;;;;;;4.22;3.78;;;;;;;;;;5034836;28;20033;-70
2022/08/14 12:11:59;;;;;;;9.13;3.60;;;;;;;;;;5018857;28;20831;-70
2022/08/14 12:14:25;;;;;;;3.97;3.40;;;;;;;;;;5018103;28;20560;-70
2022/08/14 12:16:57;;;;;;;7.93;3.58;;;;;;;;;;5015276;28;20273;-70
2022/08/14 12:19:24;;;;;;;5.40;3.80;;;;;;;;;;5018287;28;20569;-71
2022/08/14 12:21:49;;;;;;;5.70;3.28;;;;;;;;;;5018159;28;20395;-70
2022/08/14 12:24:15;;;;;;;3.72;3.28;;;;;;;;;;5023343;28;20024;-70
2022/08/14 12:26:40;;;;;;;5.15;3.35;;;;;;;;;;5020127;28;20364;-69
2022/08/14 12:29:13;;;;;;;4.95;3.67;;;;;;;;;;5017990;28;20029;-69
2022/08/14 12:31:40;;;;;;;3.38;2.90;;;;;;;;;;5018853;28;20138;-68
2022/08/14 12:34:07;;;;;;;5.00;3.00;;;;;;;;;;5002381;28;20061;-69
2022/08/14 12:36:32;;;;;;;4.72;3.40;;;;;;;;;;5020515;28;20241;-68
2022/08/14 12:38:59;;;;;;;5.13;3.45;;;;;;;;;;5018367;28;20063;-69
2022/08/14 12:41:25;;;;;;;5.18;2.88;;;;;;;;;;5018083;28;20127;-70
2022/08/14 12:43:52;;;;;;;3.65;3.10;;;;;;;;;;5016731;28;20032;-69
2022/08/14 12:46:25;;;;;;;5.20;3.10;;;;;;;;;;5017304;28;20730;-69
2022/08/14 12:48:52;;;;;;;6.25;3.13;;;;;;;;;;5017970;28;20661;-69
2022/08/14 12:51:25;;;;;;;5.60;3.00;;;;;;;;;;5019163;28;20053;-71
2022/08/14 12:53:55;;;;;;;4.18;2.80;;;;;;;;;;5019799;28;20032;-69
2022/08/14 12:56:23;;;;;;;3.03;2.70;;;;;;;;;;5019377;28;20074;-68
2022/08/14 12:58:51;;;;;;;3.30;2.58;;;;;;;;;;5032117;28;20256;-68
2022/08/14 13:01:21;;;;;;;4.35;2.70;;;;;;;;;;5018661;28;20156;-68
2022/08/14 13:03:47;;;;;;;3.55;2.50;;;;;;;;;;5016372;28;20218;-68
2022/08/14 13:06:13;;;;;;;3.53;2.80;;;;;;;;;;5018426;28;20258;-68
2022/08/14 13:08:41;;;;;;;5.03;2.85;;;;;;;;;;5012703;28;20532;-69
2022/08/14 13:11:10;;;;;;;2.88;2.58;;;;;;;;;;5018951;28;20052;-68
2022/08/14 13:13:36;;;;;;;6.38;2.92;;;;;;;;;;5016893;28;20541;-69
2022/08/14 13:16:04;;;;;;;7.30;3.17;;;;;;;;;;5019257;28;20037;-68
2022/08/14 13:18:29;;;;;;;3.22;2.50;;;;;;;;;;5031330;28;20347;-68
2022/08/14 13:20:57;;;;;;;4.55;2.90;;;;;;;;;;5019407;28;20028;-71
2022/08/14 13:23:25;;;;;;;5.13;2.70;;;;;;;;;;5032539;28;20037;-71
2022/08/14 13:25:51;;;;;;;3.30;2.80;;;;;;;;;;5020752;28;20040;-70
2022/08/14 13:28:18;;;;;;;4.47;2.83;;;;;;;;;;5019831;28;20144;-71
2022/08/14 13:30:44;;;;;;;5.03;3.53;;;;;;;;;;5012921;28;20052;-71
2022/08/14 13:33:11;;;;;;;8.13;2.80;;;;;;;;;;5019443;28;20032;-70
2022/08/14 13:35:37;;;;;;;5.95;3.13;;;;;;;;;;5031138;28;20125;-71
2022/08/14 13:38:02;;;;;;;4.22;3.20;;;;;;;;;;5015914;28;21028;-70
2022/08/14 13:40:28;;;;;;;5.07;2.80;;;;;;;;;;5031059;28;20051;-69
2022/08/14 13:42:54;;;;;;;6.38;3.00;;;;;;;;;;5014835;28;20048;-70
2022/08/14 13:45:22;;;;;;;6.32;2.92;;;;;;;;;;5017894;28;20043;-70
2022/08/14 13:47:48;;;;;;;4.13;3.05;;;;;;;;;;5021365;28;20792;-70
2022/08/14 13:50:15;;;;;;;5.13;3.13;;;;;;;;;;5017466;28;20755;-70
2022/08/14 13:52:49;;;;;;;6.18;2.97;;;;;;;;;;5016697;28;20036;-69
2022/08/14 13:55:16;;;;;;;5.85;3.25;;;;;;;;;;5020690;28;20040;-70
2022/08/14 13:57:42;;;;;;;6.43;3.20;;;;;;;;;;5018226;28;20047;-70
2022/08/14 14:00:10;;;;;;;5.68;3.47;;;;;;;;;;5015616;28;20217;-70
2022/08/14 14:02:37;;;;;;;4.93;3.13;;;;;;;;;;5030896;28;20141;-69
2022/08/14 14:05:03;;;;;;;6.38;3.15;;;;;;;;;;5029106;28;20098;-69
2022/08/14 14:07:29;;;;;;;6.50;3.50;;;;;;;;;;4993686;28;20037;-68
2022/08/14 14:09:56;;;;;;;5.32;3.60;;;;;;;;;;5015349;28;20048;-70
2022/08/14 14:12:22;;;;;;;4.45;3.40;;;;;;;;;;5015643;28;21131;-68
2022/08/14 14:14:47;;;;;;;4.03;3.28;;;;;;;;;;5016427;28;20029;-68
2022/08/14 14:17:13;;;;;;;6.05;3.63;;;;;;;;;;5017090;28;20146;-70
2022/08/14 14:19:45;;;;;;;4.15;3.33;;;;;;;;;;5022611;28;20037;-69
2022/08/14 14:22:12;;;;;;;5.68;3.40;;;;;;;;;;5013130;27;20225;-70
2022/08/14 14:24:38;;;;;;;5.00;3.10;;;;;;;;;;5017350;27;20037;-71
2022/08/14 14:27:04;;;;;;;5.20;3.47;;;;;;;;;;5017190;27;20125;-70
2022/08/14 14:29:30;;;;;;;342.00;308.42;;;;;;;;;;4996691;28;20401;-70
2022/08/14 14:31:59;;;;;;;32.88;29.63;;;;;;;;;;5005191;27;20035;-70
2022/08/14 14:34:26;;;;;;;8.02;4.05;;;;;;;;;;5010661;27;20432;-70
2022/08/14 14:36:55;;;;;;;4.57;3.63;;;;;;;;;;5027372;28;20036;-69
2022/08/14 14:39:24;;;;;;;5.55;3.33;;;;;;;;;;5016979;28;20523;-69
2022/08/14 14:41:52;;;;;;;5.50;3.47;;;;;;;;;;5004237;28;20209;-69
2022/08/14 14:44:21;;;;;;;7.93;4.60;;;;;;;;;;5017541;28;21980;-69
2022/08/14 14:46:49;;;;;;;6.55;4.20;;;;;;;;;;5030039;28;20142;-70
2022/08/14 14:49:15;;;;;;;3.80;3.03;;;;;;;;;;5017164;28;20340;-71
2022/08/14 14:51:44;;;;;;;5.90;3.70;;;;;;;;;;5016996;28;20232;-71
2022/08/14 14:54:09;;;;;;;4.35;3.63;;;;;;;;;;5025834;28;20034;-70